createdAt,value
2023-05-23T00:04:26.993Z,13.10
2023-05-23T00:14:29.244Z,13.00
2023-05-23T00:24:31.241Z,12.70
2023-05-23T00:34:33.142Z,12.50
2023-05-23T00:44:35.126Z,12.40
2023-05-23T00:54:37.777Z,12.10
2023-05-23T01:04:40.025Z,11.10
2023-05-23T01:14:57.759Z,11.20
2023-05-23T01:25:28.141Z,11.20
2023-05-23T01:35:32.243Z,11.10
2023-05-23T01:45:34.512Z,10.90
2023-05-23T01:55:38.338Z,10.80
2023-05-23T02:05:40.652Z,10.70
2023-05-23T02:15:42.996Z,10.10
2023-05-23T02:25:45.052Z,10.20
2023-05-23T02:35:48.296Z,10.10
2023-05-23T02:45:50.697Z,10.00
2023-05-23T02:55:52.590Z,10.00
2023-05-23T03:05:55.247Z,10.00
2023-05-23T03:15:57.303Z,10.10
2023-05-23T03:25:59.307Z,9.90
2023-05-23T03:36:02.856Z,10.20
2023-05-23T03:46:06.290Z,10.60
2023-05-23T03:56:08.803Z,11.40
2023-05-23T04:06:12.316Z,12.20
2023-05-23T04:16:18.616Z,12.90
2023-05-23T04:26:22.404Z,13.50
2023-05-23T04:36:27.660Z,14.30
2023-05-23T04:46:30.570Z,15.10
2023-05-23T04:56:48.350Z,16.30
2023-05-23T05:06:53.467Z,17.00
2023-05-23T05:16:55.912Z,17.10
2023-05-23T05:26:58.311Z,17.90
2023-05-23T05:37:00.385Z,18.50
2023-05-23T05:47:02.555Z,19.90
2023-05-23T05:57:05.297Z,19.60
2023-05-23T06:07:08.348Z,18.80
2023-05-23T06:17:10.387Z,19.80
2023-05-23T06:27:13.183Z,20.10
2023-05-23T06:37:15.742Z,21.00
2023-05-23T06:47:17.723Z,22.20
2023-05-23T06:57:19.630Z,22.90
2023-05-23T07:07:21.679Z,22.40
2023-05-23T07:17:25.293Z,23.80
2023-05-23T07:27:27.967Z,23.20
2023-05-23T07:37:30.067Z,23.70
2023-05-23T07:47:32.164Z,24.90
2023-05-23T07:57:34.179Z,24.50
2023-05-23T08:07:36.358Z,25.10
2023-05-23T08:17:40.137Z,25.80
2023-05-23T08:27:43.456Z,26.20
2023-05-23T08:38:11.486Z,25.50
2023-05-23T08:48:21.519Z,26.00
2023-05-23T08:58:26.329Z,26.90
2023-05-23T09:08:30.937Z,26.00
2023-05-23T09:18:35.680Z,27.40
2023-05-23T09:28:40.304Z,27.10
2023-05-23T09:38:44.085Z,27.70
2023-05-23T09:48:52.419Z,27.70
2023-05-23T09:58:56.683Z,26.90
2023-05-23T10:09:06.350Z,25.90
2023-05-23T10:19:20.905Z,27.00
2023-05-23T10:29:23.060Z,26.70
2023-05-23T10:39:52.813Z,27.70
2023-05-23T10:49:55.814Z,27.90
2023-05-23T10:59:57.840Z,27.70
2023-05-23T11:10:13.649Z,27.20
2023-05-23T11:20:16.077Z,25.90
2023-05-23T11:30:18.436Z,26.40
2023-05-23T11:40:32.036Z,25.40
2023-05-23T11:50:34.257Z,20.60
2023-05-23T12:00:43.948Z,19.20
2023-05-23T12:10:53.483Z,18.40
2023-05-23T12:20:55.680Z,17.80
2023-05-23T12:30:57.785Z,17.30
2023-05-23T12:41:16.803Z,17.90
2023-05-23T12:51:19.053Z,18.90
2023-05-23T13:01:21.263Z,19.60
2023-05-23T13:11:23.745Z,19.40
2023-05-23T13:21:25.787Z,19.60
2023-05-23T13:31:27.811Z,19.80
2023-05-23T13:41:29.765Z,19.50
2023-05-23T13:51:31.654Z,19.90
2023-05-23T14:01:33.723Z,19.70
2023-05-23T14:11:35.943Z,19.80
2023-05-23T14:21:38.257Z,20.00
2023-05-23T14:31:40.123Z,19.90
2023-05-23T14:41:42.405Z,19.70
2023-05-23T14:51:50.443Z,20.20
2023-05-23T15:01:53.784Z,20.50
2023-05-23T15:11:55.771Z,20.50
2023-05-23T15:21:57.886Z,20.60
2023-05-23T15:31:59.903Z,20.60
2023-05-23T15:42:01.878Z,19.90
2023-05-23T15:52:03.968Z,19.90
2023-05-23T16:02:06.251Z,19.80
2023-05-23T16:12:08.606Z,19.50
2023-05-23T16:22:10.577Z,19.50
2023-05-23T16:32:12.420Z,19.20
2023-05-23T16:42:14.400Z,19.00
2023-05-23T16:52:16.320Z,18.70
2023-05-23T17:02:18.299Z,18.90
2023-05-23T17:12:20.228Z,18.60
2023-05-23T17:22:22.120Z,18.50
2023-05-23T17:32:23.995Z,18.70
2023-05-23T17:42:25.945Z,18.30
2023-05-23T17:52:28.482Z,18.40
2023-05-23T18:02:30.357Z,18.40
2023-05-23T18:12:32.341Z,18.30
2023-05-23T18:22:34.291Z,18.00
2023-05-23T18:32:36.288Z,18.10
2023-05-23T18:42:38.238Z,18.10
2023-05-23T18:52:40.447Z,18.10
2023-05-23T19:02:42.474Z,18.00
2023-05-23T19:12:44.584Z,18.00
2023-05-23T19:22:52.217Z,17.90
2023-05-23T19:32:54.795Z,17.80
2023-05-23T19:42:56.805Z,17.70
2023-05-23T19:52:59.593Z,17.70
2023-05-23T20:03:01.458Z,17.50
2023-05-23T20:13:03.690Z,17.50
2023-05-23T20:23:05.769Z,17.40
2023-05-23T20:33:08.244Z,17.30
2023-05-23T20:43:10.215Z,17.30
2023-05-23T20:53:12.131Z,17.30
2023-05-23T21:03:14.150Z,17.10
2023-05-23T21:13:16.093Z,17.10
2023-05-23T21:23:18.286Z,17.00
2023-05-23T21:33:20.236Z,16.90
2023-05-23T21:43:22.143Z,16.90
2023-05-23T21:53:24.162Z,16.70
2023-05-23T22:03:26.139Z,16.60
2023-05-23T22:13:28.135Z,16.60
2023-05-23T22:23:30.549Z,16.50
2023-05-23T22:33:32.418Z,16.50
2023-05-23T22:43:34.747Z,16.30
2023-05-23T22:53:36.695Z,16.30
2023-05-23T23:03:38.733Z,16.30
2023-05-23T23:13:40.729Z,16.00
2023-05-23T23:23:42.621Z,15.90
2023-05-23T23:33:44.547Z,15.80
2023-05-23T23:43:46.619Z,15.60
2023-05-23T23:53:50.343Z,15.50
